Maersk Essen — V7UQ8 — position and weather

sailwx.info

Track history (hours):
 
Tides and Currents Weather Stations Pressure Air Temp Water Temp Dewpoint Dewpoint Depression Visibility Wind Speed Wind Dir Waves Ship Positions

Maersk Essen

Last reported at 2014-Sep-27 07:33 UTC. Time now 2014-Sep-30 10:20 UTC.
Position N 01°14' E 103°31'.

Length 367 m; draft 13.7 m.

Type: Ship (hazmat cat A). MMSI: 538004007.

Date/timePositionNaut miles runAvg speedWind from/ knotsBaromVisibWave heightAir tempDewpointWater temp
2014-Sep-27 07:33N 01°14' E 103°31'7 7.0
2014-Sep-27 06:33N 01°20' E 103°33'0 0.1
2014-Sep-27 05:32N 01°20' E 103°33'0 0.0
2014-Sep-27 04:25N 01°20' E 103°33'0 0.0
2014-Sep-27 03:08N 01°20' E 103°33'0 0.0
2014-Sep-27 02:32N 01°20' E 103°33'0 0.0
2014-Sep-27 01:32N 01°20' E 103°33'0 0.0
2014-Sep-27 00:31N 01°20' E 103°33'0 0.0
2014-Sep-26 23:32N 01°20' E 103°33'0 0.0
2014-Sep-26 22:32N 01°20' E 103°33'0 0.0
2014-Sep-26 21:31N 01°20' E 103°33'0 0.0
2014-Sep-26 20:31N 01°20' E 103°33'0 0.1
2014-Sep-26 19:32N 01°20' E 103°33'0 0.1
2014-Sep-26 18:31N 01°20' E 103°33'0 0.1
2014-Sep-26 17:28N 01°20' E 103°33'0 0.1
2014-Sep-26 16:29N 01°20' E 103°33'0 0.0
2014-Sep-26 15:32N 01°20' E 103°33'0 0.0
2014-Sep-26 14:31N 01°20' E 103°33'0 0.0
2014-Sep-26 13:28N 01°20' E 103°33'0 0.0
2014-Sep-26 12:31N 01°20' E 103°33'0 0.0
2014-Sep-26 11:25N 01°20' E 103°33'0 0.0
2014-Sep-26 10:25N 01°20' E 103°33'0 0.0
2014-Sep-26 09:28N 01°20' E 103°33'0 0.1
2014-Sep-26 08:31N 01°20' E 103°33'0 0.1
2014-Sep-26 07:31N 01°20' E 103°33'0 0.0
2014-Sep-26 06:22N 01°20' E 103°33'0 0.0
2014-Sep-26 05:31N 01°20' E 103°33'0 0.0
2014-Sep-26 04:31N 01°20' E 103°33'0 0.0
2014-Sep-26 03:28N 01°20' E 103°33'0 0.0
2014-Sep-26 02:22N 01°20' E 103°33'0 0.0
2014-Sep-26 01:31N 01°20' E 103°33'1 0.7
2014-Sep-26 00:33N 01°20' E 103°33'7 6.7
2014-Sep-25 23:32N 01°13' E 103°32'2 2.5
2014-Sep-25 22:33N 01°12' E 103°35'9 8.6
2014-Sep-25 21:33N 01°09' E 103°43'1110.5
2014-Sep-25 20:33N 01°13' E 103°53'1413.5
2014-Sep-25 19:33N 01°16' E 104°06'  
2014-Sep-20 13:27N 23°33' E 117°54'1011.5
2014-Sep-20 12:33N 23°43' E 117°60'1111.2
2014-Sep-20 11:33N 23°53' E 118°05'1111.0
2014-Sep-20 10:33N 24°02' E 118°12'1110.9
2014-Sep-20 09:33N 24°11' E 118°18'1514.5
2014-Sep-20 08:33N 24°23' E 118°08'7 5.2
2014-Sep-20 07:17N 24°26' E 118°02'0 0.0
2014-Sep-20 06:29N 24°26' E 118°02'0 0.0
2014-Sep-20 05:29N 24°26' E 118°02'0 0.0
2014-Sep-20 04:23N 24°26' E 118°02'0 0.0
2014-Sep-20 03:17N 24°26' E 118°02'0 0.0
2014-Sep-20 01:23N 24°26' E 118°02'0 0.0
2014-Sep-20 00:23N 24°26' E 118°02'2 2.8
2014-Sep-19 23:33N 24°26' E 118°04'1010.1
2014-Sep-19 22:33N 24°19' E 118°12'1211.6
2014-Sep-19 21:33N 24°13' E 118°23'1 1.0
2014-Sep-19 20:29N 24°14' E 118°24'0 0.0
2014-Sep-19 19:11N 24°14' E 118°24'0 0.0
2014-Sep-19 18:05N 24°14' E 118°24'0 0.0
2014-Sep-19 15:23N 24°14' E 118°24'0 0.1
2014-Sep-19 13:23N 24°14' E 118°24'1910.6
2014-Sep-19 11:33N 24°19' E 118°45'2311.7
2014-Sep-19 09:33N 24°32' E 119°06'1212.5
2014-Sep-19 08:34N 24°39' E 119°17'1211.7
2014-Sep-19 07:33N 24°47' E 119°27'36311.0
2014-Sep-17 22:32N 29°55' E 123°03'1111.2
2014-Sep-17 21:31N 30°06' E 123°06'1010.3
2014-Sep-17 20:33N 30°16' E 123°03'1110.6
2014-Sep-17 19:32N 30°22' E 122°52'1010.2
2014-Sep-17 18:33N 30°28' E 122°43'1110.9
2014-Sep-17 17:32N 30°31' E 122°30'1212.1
2014-Sep-17 16:33N 30°33' E 122°17'1312.2
2014-Sep-17 15:30N 30°38' E 122°03'  
Track history (hours):
 
Tides and Currents Weather Stations Pressure Air Temp Water Temp Dewpoint Dewpoint Depression Visibility Wind Speed Wind Dir Waves Ship Positions

Maersk Essen

Last reported at 2014-Sep-27 07:33 UTC. Time now 2014-Sep-30 10:20 UTC.
Position N 01°14' E 103°31'.

Length 367 m; draft 13.7 m.

Type: Ship (hazmat cat A). MMSI: 538004007.

Date/timePositionNaut miles runAvg speedWind from/ knotsBaromVisibWave heightAir tempDewpointWater temp
2014-Sep-27 07:33N 01°14' E 103°31'7 7.0
2014-Sep-27 06:33N 01°20' E 103°33'0 0.1
2014-Sep-27 05:32N 01°20' E 103°33'0 0.0
2014-Sep-27 04:25N 01°20' E 103°33'0 0.0
2014-Sep-27 03:08N 01°20' E 103°33'0 0.0
2014-Sep-27 02:32N 01°20' E 103°33'0 0.0
2014-Sep-27 01:32N 01°20' E 103°33'0 0.0
2014-Sep-27 00:31N 01°20' E 103°33'0 0.0
2014-Sep-26 23:32N 01°20' E 103°33'0 0.0
2014-Sep-26 22:32N 01°20' E 103°33'0 0.0
2014-Sep-26 21:31N 01°20' E 103°33'0 0.0
2014-Sep-26 20:31N 01°20' E 103°33'0 0.1
2014-Sep-26 19:32N 01°20' E 103°33'0 0.1
2014-Sep-26 18:31N 01°20' E 103°33'0 0.1
2014-Sep-26 17:28N 01°20' E 103°33'0 0.1
2014-Sep-26 16:29N 01°20' E 103°33'0 0.0
2014-Sep-26 15:32N 01°20' E 103°33'0 0.0
2014-Sep-26 14:31N 01°20' E 103°33'0 0.0
2014-Sep-26 13:28N 01°20' E 103°33'0 0.0
2014-Sep-26 12:31N 01°20' E 103°33'0 0.0
2014-Sep-26 11:25N 01°20' E 103°33'0 0.0
2014-Sep-26 10:25N 01°20' E 103°33'0 0.0
2014-Sep-26 09:28N 01°20' E 103°33'0 0.1
2014-Sep-26 08:31N 01°20' E 103°33'0 0.1
2014-Sep-26 07:31N 01°20' E 103°33'0 0.0
2014-Sep-26 06:22N 01°20' E 103°33'0 0.0
2014-Sep-26 05:31N 01°20' E 103°33'0 0.0
2014-Sep-26 04:31N 01°20' E 103°33'0 0.0
2014-Sep-26 03:28N 01°20' E 103°33'0 0.0
2014-Sep-26 02:22N 01°20' E 103°33'0 0.0
2014-Sep-26 01:31N 01°20' E 103°33'1 0.7
2014-Sep-26 00:33N 01°20' E 103°33'7 6.7
2014-Sep-25 23:32N 01°13' E 103°32'2 2.5
2014-Sep-25 22:33N 01°12' E 103°35'9 8.6
2014-Sep-25 21:33N 01°09' E 103°43'1110.5
2014-Sep-25 20:33N 01°13' E 103°53'1413.5
2014-Sep-25 19:33N 01°16' E 104°06'  
2014-Sep-20 13:27N 23°33' E 117°54'1011.5
2014-Sep-20 12:33N 23°43' E 117°60'1111.2
2014-Sep-20 11:33N 23°53' E 118°05'1111.0
2014-Sep-20 10:33N 24°02' E 118°12'1110.9
2014-Sep-20 09:33N 24°11' E 118°18'1514.5
2014-Sep-20 08:33N 24°23' E 118°08'7 5.2
2014-Sep-20 07:17N 24°26' E 118°02'0 0.0
2014-Sep-20 06:29N 24°26' E 118°02'0 0.0
2014-Sep-20 05:29N 24°26' E 118°02'0 0.0
2014-Sep-20 04:23N 24°26' E 118°02'0 0.0
2014-Sep-20 03:17N 24°26' E 118°02'0 0.0
2014-Sep-20 01:23N 24°26' E 118°02'0 0.0
2014-Sep-20 00:23N 24°26' E 118°02'2 2.8
2014-Sep-19 23:33N 24°26' E 118°04'1010.1
2014-Sep-19 22:33N 24°19' E 118°12'1211.6
2014-Sep-19 21:33N 24°13' E 118°23'1 1.0
2014-Sep-19 20:29N 24°14' E 118°24'0 0.0
2014-Sep-19 19:11N 24°14' E 118°24'0 0.0
2014-Sep-19 18:05N 24°14' E 118°24'0 0.0
2014-Sep-19 15:23N 24°14' E 118°24'0 0.1
2014-Sep-19 13:23N 24°14' E 118°24'1910.6
2014-Sep-19 11:33N 24°19' E 118°45'2311.7
2014-Sep-19 09:33N 24°32' E 119°06'1212.5
2014-Sep-19 08:34N 24°39' E 119°17'1211.7
2014-Sep-19 07:33N 24°47' E 119°27'36311.0
2014-Sep-17 22:32N 29°55' E 123°03'1111.2
2014-Sep-17 21:31N 30°06' E 123°06'1010.3
2014-Sep-17 20:33N 30°16' E 123°03'1110.6
2014-Sep-17 19:32N 30°22' E 122°52'1010.2
2014-Sep-17 18:33N 30°28' E 122°43'1110.9
2014-Sep-17 17:32N 30°31' E 122°30'1212.1
2014-Sep-17 16:33N 30°33' E 122°17'1312.2
2014-Sep-17 15:30N 30°38' E 122°03'  

Dump ship's entire track history